Latest Coastal Weather Observations for Eucla

IDS60701

Issued at 3:41 pm CDT Tuesday 20 February 2018 (issued every 10 minutes, with the page automatically refreshed every 10 minutes)

About coastal observations | Map of coastal stations | Coastal observations for SA | Marine services | Other Formats
Station Details ID: 011003 Name: EUCLA Lat: -31.68 Lon: 128.90 Height: 93.1 m
Data from the previous 72 hours. | See also: Recent months at Eucla
Date/Time
CDT
Temp
°C
Wind Pressure Rain since
9am
mm
Weather Cloud Vis
km
Sea
Height
m
Swell
Dir  Spd
kts
Gust
kts
hPa Trend Height
m
Period
s
Dir
20/03:30pm 21.5 E 11 17 1007.6 - 0.6 - - - - - - -
20/03:00pm 21.1 E 12 18 1007.9 - 0.6 - - - - - - -
20/02:30pm 21.1 E 11 17 1007.9 - 0.6 Recent precip. - - - - - -
20/02:00pm 21.0 E 9 15 1008.1 - 0.4 - - - - - - -
20/01:30pm 21.0 E 11 16 1008.5 - 0.4 - - - - - - -
20/01:00pm 21.1 E 10 14 1008.8 - 0.4 - - - - - - -
20/12:30pm 21.0 ESE 8 14 1009.3 - 0.2 - - - - - - -
20/12:00pm 20.9 ESE 7 11 1009.8 - 0.0 - - - - - - -
20/11:30am 21.0 SE 7 10 1010.0 - 5.6 Drizzle Cloudy 1 - - - -
20/11:00am 20.9 SE 7 12 1010.0 - 5.2 - - - - - - -
20/10:30am 20.9 SE 8 12 1009.9 - 5.0 - - - - - - -
20/10:00am 20.7 SE 7 9 1009.8 - 5.0 - - - - - - -
20/09:30am 20.5 SSE 6 8 1010.3 - 5.0 - - - - - - -
20/09:00am 20.3 S 5 6 1010.4 - 4.8 - - - - - - -
20/08:30am 20.2 SE 3 5 1010.9 - 4.2 Rain - - - - - -
20/08:00am 20.1 ESE 5 7 1009.8 - 3.6 - - - - - - -
20/07:30am 20.1 E 4 6 1009.7 - 2.6 - - - - - - -
20/07:00am 20.1 ESE 6 7 1009.0 - 2.4 - - - - - - -
20/06:30am 20.0 SE 6 8 1008.4 - 2.2 - - - - - - -
20/06:00am 19.9 SE 5 6 1008.4 - 1.6 - - - - - - -
20/05:30am 19.7 SE 7 8 1007.8 - 1.4 - - - - - - -
20/05:00am 19.7 ESE 7 10 1007.9 - 1.4 - - - - - - -
20/04:30am 19.5 SE 6 8 1008.2 - 1.4 - - - - - - -
20/04:00am 19.5 SSW 2 5 1009.0 - 1.4 - - - - - - -
20/03:30am 19.6 WSW 5 7 1009.3 - 1.4 - - - - - - -
20/03:00am 19.7 W 5 7 1009.5 - 1.0 - - - - - - -
20/02:30am 20.2 NNE 7 10 1008.5 - 0.6 - - - - - - -
20/02:00am 20.2 E 12 17 1007.0 - 0.6 - - - - - - -
20/01:30am 20.2 E 9 15 1006.9 - 0.6 - - - - - - -
20/01:00am 20.2 ENE 11 18 1007.2 - 0.6 - - - - - - -
20/12:30am 20.2 E 12 16 1007.6 - 0.6 - - - - - - -
20/12:00am 20.2 E 11 16 1007.9 - 0.6 - - - - - - -
 
Date/Time
CDT
Temp
°C
Wind Pressure Rain since
9am
mm
Weather Cloud Vis
km
Sea
Height
m
Swell
Dir  Spd
kts
Gust
kts
hPa Trend Height
m
Period
s
Dir
19/11:30pm 20.1 E 12 18 1007.9 - 0.6 - - - - - - -
19/11:00pm 20.0 E 11 18 1007.9 - 0.6 - - - - - - -
19/10:30pm 20.0 E 12 21 1007.6 - 0.6 - - - - - - -
19/10:00pm 20.0 E 11 17 1007.9 - 0.6 - - - - - - -
19/09:30pm 19.9 E 9 16 1008.1 - 0.6 - - - - - - -
19/09:00pm 19.9 E 10 15 1008.3 - 0.6 - - - - - - -
19/08:30pm 20.1 E 10 17 1008.1 - 0.6 - - - - - - -
19/08:00pm 20.2 E 10 17 1008.1 - 0.6 - - - - - - -
19/07:30pm 20.3 E 12 17 1008.2 - 0.6 - - - - - - -
19/07:00pm 20.7 E 11 17 1008.2 - 0.0 - - - - - - -
19/06:30pm 20.9 E 12 19 1008.1 - 0.0 - - - - - - -
19/06:00pm 20.7 ESE 13 21 1008.2 - 0.0 - - - - - - -
19/05:30pm 21.6 E 14 24 1008.3 - 0.0 Haze Mostly cloudy 5 - - - -
19/05:00pm 21.2 E 13 19 1008.5 - 0.0 - - - - - - -
19/04:30pm 21.2 E 13 19 1009.0 - 0.0 - - - - - - -
19/04:00pm 21.3 ESE 12 17 1009.4 - 0.0 - - - - - - -
19/03:30pm 21.4 E 10 14 1010.1 - 0.0 - - - - - - -
19/03:00pm 21.5 E 10 15 1010.6 - 0.0 - - - - - - -
19/02:30pm 21.8 ESE 8 11 1010.8 - 0.0 - - - - - - -
19/02:00pm 21.8 ESE 7 11 1011.1 - 0.0 - - - - - - -
19/01:30pm 23.3 ESE 8 12 1011.2 - 0.0 - - - - - - -
19/01:00pm 23.3 E 6 10 1011.5 - 0.0 - - - - - - -
19/12:30pm 25.2 NE 7 13 1011.8 - 0.0 - - - - - - -
19/12:00pm 25.3 ENE 9 14 1012.0 - 0.0 - - - - - - -
19/11:30am 23.9 NE 8 11 1012.2 - 0.0 Fine Cloudy 40 - - - -
19/11:00am 22.3 NNE 8 12 1012.7 - 0.0 - - - - - - -
19/10:30am 21.5 NNE 7 10 1012.7 - 0.0 - - - - - - -
19/10:00am 21.7 ENE 7 11 1012.0 - 0.0 - - - - - - -
19/09:30am 21.4 E 9 12 1011.7 - 0.0 - - - - - - -
19/09:00am 20.5 E 9 15 1011.3 - 0.0 - - - - - - -
19/08:30am 20.1 E 9 15 1011.0 - 0.0 - - - - - - -
19/08:00am 19.6 E 9 16 1010.4 - 0.0 - - - - - - -
19/07:30am 19.4 E 8 12 1010.2 - 0.0 - - - - - - -
19/07:00am 19.2 E 9 13 1009.9 - 0.0 - - - - - - -
19/06:30am 19.3 ENE 9 14 1009.9 - 0.0 - - - - - - -
19/06:00am 19.5 E 10 17 1010.0 - 0.0 - - - - - - -
19/05:30am 19.6 E 11 16 1009.9 - 0.0 - - - - - - -
19/05:00am 19.7 E 10 15 1010.0 - 0.0 - - - - - - -
19/04:30am 19.6 E 10 15 1010.1 - 0.0 - - - - - - -
19/04:00am 19.7 E 9 14 1010.3 - 0.0 - - - - - - -
19/03:30am 19.9 E 9 16 1010.4 - 0.0 - - - - - - -
19/03:00am 20.0 ENE 10 15 1010.6 - 0.0 - - - - - - -
19/02:30am 20.0 E 9 14 1010.9 - 0.0 - - - - - - -
19/02:00am 20.2 E 9 15 1010.9 - 0.0 - - - - - - -
19/01:30am 20.1 E 9 14 1011.3 - 0.0 - - - - - - -
19/01:00am 20.3 E 9 14 1011.5 - 0.0 - - - - - - -
19/12:30am 20.4 E 8 15 1011.8 - 0.0 - - - - - - -
19/12:00am 20.6 ENE 9 16 1012.1 - 0.0 - - - - - - -
 
Date/Time
CDT
Temp
°C
Wind Pressure Rain since
9am
mm
Weather Cloud Vis
km
Sea
Height
m
Swell
Dir  Spd
kts
Gust
kts
hPa Trend Height
m
Period
s
Dir
18/11:30pm 20.8 E 10 16 1011.8 - 0.0 - - - - - - -
18/11:00pm 20.8 E 9 15 1011.7 - 0.0 - - - - - - -
18/10:30pm 20.8 ESE 9 15 1011.6 - 0.0 - - - - - - -
18/10:00pm 20.9 ESE 10 15 1011.2 - 0.0 - - - - - - -
18/09:30pm 21.0 ESE 9 14 1010.5 - 0.0 - - - - - - -
18/09:00pm 21.1 ESE 9 15 1010.4 - 0.0 - - - - - - -
18/08:30pm 21.5 ESE 10 16 1010.3 - 0.0 - - - - - - -
18/08:00pm 21.8 ESE 11 16 1010.2 - 0.0 - - - - - - -
18/07:30pm 22.3 ESE 11 18 1010.2 - 0.0 - - - - - - -
18/07:00pm 23.2 ESE 12 17 1010.3 - 0.0 - - - - - - -
18/06:30pm 24.1 ESE 11 17 1010.2 - 0.0 - - - - - - -
18/06:00pm 23.9 ESE 11 16 1010.0 - 0.0 - - - - - - -
18/05:30pm 24.1 ESE 13 18 1009.9 - 0.0 Fine Partly cloudy 40 - - - -
18/05:00pm 24.7 ESE 14 20 1009.9 - 0.0 - - - - - - -
18/04:30pm 24.6 ESE 13 22 1009.8 - 0.0 - - - - - - -
18/04:00pm 25.2 ESE 13 20 1009.8 - 0.0 - - - - - - -
18/03:30pm 25.1 ESE 13 18 1009.9 - 0.0 - - - - - - -
18/03:00pm 24.2 ESE 12 18 1010.2 - 0.0 - - - - - - -
18/02:30pm 24.9 E 12 17 1010.5 - 0.0 - - - - - - -
18/02:00pm 24.5 ESE 11 17 1010.5 - 0.0 - - - - - - -
18/01:30pm 24.4 ESE 11 16 1010.5 - 0.0 - - - - - - -
18/01:00pm 24.5 ESE 11 16 1010.7 - 0.0 - - - - - - -
18/12:30pm 24.5 ESE 8 14 1010.7 - 0.0 - - - - - - -
18/12:00pm 23.6 ESE 8 12 1010.6 - 0.0 - - - - - - -
18/11:30am 23.7 ESE 9 13 1010.7 - 4.2 Fine Partly cloudy 40 - - - -
18/11:00am 22.6 ESE 9 14 1010.5 - 4.0 - - - - - - -
18/10:30am 21.9 ESE 9 14 1010.2 - 4.0 - - - - - - -
18/10:00am 22.4 SSE 7 10 1010.1 - 4.0 - - - - - - -
18/09:30am 22.4 S 1 5 1009.6 - 4.0 - - - - - - -
18/09:00am 20.7 CALM 0 0 1009.1 - 4.0 - - - - - - -
18/08:30am 19.8 S 3 4 1008.7 - 4.0 - - - - - - -
18/08:00am 18.9 CALM 0 0 1008.5 - 4.0 - - - - - - -
18/07:30am 18.7 CALM 0 0 1008.1 - 4.0 - - - - - - -
18/07:00am 19.2 SSW 3 5 1008.0 - 4.0 - - - - - - -
18/06:30am 19.4 CALM 0 0 1007.6 - 4.0 - - - - - - -
18/06:00am 19.7 NE 7 10 1007.5 - 4.0 - - - - - - -
18/05:30am 19.9 NE 8 12 1007.1 - 4.0 - - - - - - -
18/05:00am 19.9 NE 9 13 1007.0 - 4.0 - - - - - - -
18/04:30am 19.6 NE 7 10 1007.6 - 4.0 - - - - - - -
18/04:00am 19.8 NE 5 7 1008.0 - 4.0 - - - - - - -
18/03:30am 20.0 NE 4 5 1008.2 - 4.0 - - - - - - -
18/03:00am 20.1 NNE 5 7 1008.6 - 4.0 - - - - - - -
18/02:30am 20.2 N 6 7 1009.5 - 3.8 Recent precip. - - - - - -
18/02:00am 20.4 N 8 10 1010.8 - 3.4 - - - - - - -
18/01:30am 20.8 NW 5 8 1011.3 - 0.8 - - - - - - -
18/01:00am 20.9 SSE 5 6 1009.6 - 0.0 - - - - - - -
18/12:30am 20.9 S 7 10 1009.3 - 0.0 - - - - - - -
18/12:00am 20.8 ESE 6 8 1008.9 - 0.0 - - - - - - -
 
Date/Time
CDT
Temp
°C
Wind Pressure Rain since
9am
mm
Weather Cloud Vis
km
Sea
Height
m
Swell
Dir  Spd
kts
Gust
kts
hPa Trend Height
m
Period
s
Dir
17/11:30pm 20.9 SE 6 8 1008.9 - 0.0 - - - - - - -
17/11:00pm 20.9 ESE 7 11 1008.4 - 0.0 - - - - - - -
17/10:30pm 20.8 ESE 8 12 1008.1 - 0.0 - - - - - - -
17/10:00pm 20.9 ESE 8 11 1008.1 - 0.0 - - - - - - -
17/09:30pm 20.8 E 8 13 1007.4 - 0.0 - - - - - - -
17/09:00pm 20.8 ESE 9 15 1007.0 - 0.0 - - - - - - -
17/08:30pm 21.0 ESE 10 18 1006.6 - 0.0 - - - - - - -
17/08:00pm 21.4 ESE 12 19 1006.5 - 0.0 - - - - - - -
17/07:30pm 22.2 ESE 12 18 1006.0 - 0.0 - - - - - - -
17/07:00pm 22.4 ESE 13 20 1006.1 - 0.0 - - - - - - -
17/06:30pm 22.8 E 13 21 1006.3 - 0.0 - - - - - - -

Other Formats:

Comma delimited format used in spreadsheet applications
http://www.bom.gov.au/fwo/IDS60701/IDS60701.94647.axf

JavaScript Object Notation format (JSON) in row-major order
http://www.bom.gov.au/fwo/IDS60701/IDS60701.94647.json